VOI7932 MMHO-KONT
Flight info
| Callsign | VOI7932 |
|---|---|
| Flight time | 1h 15m |
| Altitude | 38000 |
| Route | OTUBO4A OTUBO UT18 GOLFO UT25 AXASA J93 ASUTA DCT AMMOR SCBBY2 |
| Aircraft | A320/M-SDE3FGHIRWY/LB1 |
Departure
| Time | 2026-04-29 17:00 |
|---|---|
| Airport | General Ignacio L. Pesqueira International Airport (MMHO) |
Arrival
| Time | 2026-04-29 18:16 |
|---|---|
| Airport | Ontario International Airport (KONT) |
| Time | Latitude | Longitude | Altitude | Speed | Heading |
|---|---|---|---|---|---|
| 2026-04-29 16:47 | 29.09114 | -111.05157 | 624 ft | 0 kts | 149° |
| 2026-04-29 16:54 | 29.09123 | -111.05163 | 633 ft | 2 kts | 149° |
| 2026-04-29 16:54 | 29.09137 | -111.05173 | 625 ft | 2 kts | 149° |
| 2026-04-29 16:54 | 29.09152 | -111.05182 | 634 ft | 2 kts | 149° |
| 2026-04-29 16:55 | 29.09154 | -111.05184 | 634 ft | 0 kts | 149° |
| 2026-04-29 16:55 | 29.09150 | -111.05181 | 634 ft | 1 kts | 147° |
| 2026-04-29 16:55 | 29.09149 | -111.05173 | 634 ft | 1 kts | 89° |
| 2026-04-29 16:56 | 29.09155 | -111.05165 | 627 ft | 2 kts | 52° |
| 2026-04-29 16:56 | 29.09176 | -111.05148 | 627 ft | 5 kts | 33° |
| 2026-04-29 16:56 | 29.09210 | -111.05112 | 631 ft | 8 kts | 54° |
| 2026-04-29 16:56 | 29.09222 | -111.05093 | 630 ft | 9 kts | 56° |
| 2026-04-29 16:57 | 29.09239 | -111.05061 | 632 ft | 10 kts | 59° |
| 2026-04-29 16:57 | 29.09282 | -111.04983 | 629 ft | 13 kts | 58° |
| 2026-04-29 16:58 | 29.09333 | -111.04887 | 626 ft | 16 kts | 59° |
| 2026-04-29 16:58 | 29.09367 | -111.04763 | 626 ft | 18 kts | 91° |
| 2026-04-29 16:58 | 29.09386 | -111.04614 | 630 ft | 21 kts | 51° |
| 2026-04-29 16:58 | 29.09482 | -111.04480 | 638 ft | 23 kts | 53° |
| 2026-04-29 16:59 | 29.09579 | -111.04331 | 630 ft | 24 kts | 53° |
| 2026-04-29 16:59 | 29.09673 | -111.04179 | 640 ft | 17 kts | 54° |
| 2026-04-29 16:59 | 29.09772 | -111.04188 | 641 ft | 17 kts | 329° |
| 2026-04-29 16:59 | 29.09849 | -111.04274 | 639 ft | 10 kts | 269° |
| 2026-04-29 17:00 | 29.09757 | -111.04456 | 631 ft | 59 kts | 239° |
| 2026-04-29 17:00 | 29.09435 | -111.05062 | 632 ft | 118 kts | 239° |
| 2026-04-29 17:00 | 29.08926 | -111.06015 | 732 ft | 149 kts | 238° |
| 2026-04-29 17:00 | 29.08474 | -111.07028 | 1335 ft | 147 kts | 261° |
| 2026-04-29 17:01 | 29.08726 | -111.08149 | 1827 ft | 150 kts | 303° |
| 2026-04-29 17:01 | 29.09414 | -111.09063 | 2242 ft | 156 kts | 311° |
| 2026-04-29 17:01 | 29.10207 | -111.10036 | 2452 ft | 179 kts | 311° |
| 2026-04-29 17:01 | 29.11110 | -111.11133 | 2705 ft | 199 kts | 312° |
| 2026-04-29 17:02 | 29.12117 | -111.12360 | 2952 ft | 224 kts | 312° |
| 2026-04-29 17:02 | 29.13241 | -111.13729 | 3344 ft | 248 kts | 312° |
| 2026-04-29 17:02 | 29.14467 | -111.15220 | 3962 ft | 263 kts | 312° |
| 2026-04-29 17:02 | 29.15740 | -111.16765 | 4904 ft | 269 kts | 312° |
| 2026-04-29 17:03 | 29.17040 | -111.18337 | 5788 ft | 274 kts | 311° |
| 2026-04-29 17:03 | 29.18370 | -111.19943 | 6652 ft | 279 kts | 310° |
| 2026-04-29 17:03 | 29.19713 | -111.21566 | 7538 ft | 282 kts | 309° |
| 2026-04-29 17:03 | 29.21068 | -111.23207 | 8385 ft | 284 kts | 309° |
| 2026-04-29 17:04 | 29.22424 | -111.24852 | 9130 ft | 282 kts | 309° |
| 2026-04-29 17:04 | 29.23766 | -111.26481 | 9985 ft | 281 kts | 308° |
| 2026-04-29 17:04 | 29.25139 | -111.28156 | 10410 ft | 295 kts | 308° |
| 2026-04-29 17:04 | 29.26513 | -111.29829 | 11266 ft | 289 kts | 309° |
| 2026-04-29 17:05 | 29.27889 | -111.31500 | 12063 ft | 288 kts | 308° |
| 2026-04-29 17:05 | 29.29270 | -111.33177 | 12772 ft | 290 kts | 308° |
| 2026-04-29 17:05 | 29.30660 | -111.34868 | 13483 ft | 293 kts | 308° |
| 2026-04-29 17:05 | 29.32063 | -111.36577 | 14156 ft | 295 kts | 308° |
| 2026-04-29 17:06 | 29.33476 | -111.38297 | 14799 ft | 298 kts | 308° |
| 2026-04-29 17:06 | 29.34900 | -111.40028 | 15430 ft | 300 kts | 308° |
| 2026-04-29 17:06 | 29.36336 | -111.41781 | 16089 ft | 302 kts | 308° |
| 2026-04-29 17:06 | 29.37780 | -111.43543 | 16714 ft | 305 kts | 308° |
| 2026-04-29 17:07 | 29.39235 | -111.45320 | 17334 ft | 307 kts | 308° |
| 2026-04-29 17:07 | 29.40701 | -111.47113 | 17959 ft | 309 kts | 308° |
| 2026-04-29 17:07 | 29.42178 | -111.48919 | 18526 ft | 312 kts | 308° |
| 2026-04-29 17:07 | 29.43667 | -111.50740 | 19060 ft | 314 kts | 307° |
| 2026-04-29 17:08 | 29.45168 | -111.52575 | 19596 ft | 316 kts | 307° |
| 2026-04-29 17:08 | 29.46678 | -111.54420 | 20124 ft | 319 kts | 307° |
| 2026-04-29 17:08 | 29.48201 | -111.56286 | 20629 ft | 321 kts | 306° |
| 2026-04-29 17:08 | 29.49733 | -111.58161 | 21130 ft | 323 kts | 306° |
| 2026-04-29 17:09 | 29.51278 | -111.60052 | 21626 ft | 326 kts | 306° |
| 2026-04-29 17:09 | 29.52833 | -111.61957 | 22115 ft | 328 kts | 305° |
| 2026-04-29 17:09 | 29.54396 | -111.63875 | 22590 ft | 331 kts | 305° |
| 2026-04-29 17:09 | 29.55972 | -111.65813 | 23067 ft | 333 kts | 304° |
| 2026-04-29 17:10 | 29.57563 | -111.67767 | 23547 ft | 336 kts | 304° |
| 2026-04-29 17:10 | 29.59166 | -111.69732 | 23949 ft | 338 kts | 304° |
| 2026-04-29 17:10 | 29.60779 | -111.71708 | 24358 ft | 340 kts | 304° |
| 2026-04-29 17:10 | 29.62378 | -111.73672 | 24761 ft | 342 kts | 304° |
| 2026-04-29 17:11 | 29.64002 | -111.75671 | 25163 ft | 343 kts | 304° |
| 2026-04-29 17:11 | 29.65638 | -111.77684 | 25569 ft | 345 kts | 304° |
| 2026-04-29 17:11 | 29.67283 | -111.79711 | 25957 ft | 349 kts | 304° |
| 2026-04-29 17:11 | 29.68959 | -111.81786 | 26066 ft | 359 kts | 304° |
| 2026-04-29 17:12 | 29.70682 | -111.83924 | 26182 ft | 370 kts | 304° |
| 2026-04-29 17:12 | 29.72458 | -111.86124 | 26313 ft | 380 kts | 305° |
| 2026-04-29 17:12 | 29.74278 | -111.88373 | 26497 ft | 388 kts | 305° |
| 2026-04-29 17:12 | 29.75508 | -111.89889 | 26666 ft | 392 kts | 305° |
| 2026-04-29 17:13 | 29.78025 | -111.92987 | 26997 ft | 400 kts | 305° |
| 2026-04-29 17:13 | 29.79935 | -111.95338 | 27257 ft | 405 kts | 305° |
| 2026-04-29 17:13 | 29.81860 | -111.97712 | 27634 ft | 407 kts | 305° |
| 2026-04-29 17:13 | 29.83796 | -112.00100 | 28017 ft | 409 kts | 305° |
| 2026-04-29 17:14 | 29.85739 | -112.02495 | 28404 ft | 410 kts | 305° |
| 2026-04-29 17:14 | 29.87690 | -112.04906 | 28802 ft | 412 kts | 305° |
| 2026-04-29 17:14 | 29.89644 | -112.07332 | 29194 ft | 414 kts | 305° |
| 2026-04-29 17:14 | 29.91605 | -112.09768 | 29604 ft | 415 kts | 305° |
| 2026-04-29 17:15 | 29.93575 | -112.12213 | 30013 ft | 416 kts | 305° |
| 2026-04-29 17:15 | 29.95548 | -112.14662 | 30365 ft | 418 kts | 305° |
| 2026-04-29 17:15 | 29.97508 | -112.17097 | 30587 ft | 422 kts | 305° |
| 2026-04-29 17:15 | 29.99518 | -112.19597 | 30706 ft | 428 kts | 305° |
| 2026-04-29 17:16 | 30.01555 | -112.22139 | 30823 ft | 435 kts | 305° |
| 2026-04-29 17:16 | 30.03621 | -112.24718 | 30953 ft | 440 kts | 304° |
| 2026-04-29 17:16 | 30.05711 | -112.27324 | 31177 ft | 443 kts | 304° |
| 2026-04-29 17:16 | 30.07808 | -112.29934 | 31553 ft | 443 kts | 304° |
| 2026-04-29 17:17 | 30.09900 | -112.32537 | 31988 ft | 441 kts | 304° |
| 2026-04-29 17:17 | 30.11981 | -112.35129 | 32439 ft | 439 kts | 304° |
| 2026-04-29 17:17 | 30.14050 | -112.37709 | 32881 ft | 437 kts | 304° |
| 2026-04-29 17:17 | 30.16106 | -112.40275 | 33320 ft | 435 kts | 303° |
| 2026-04-29 17:18 | 30.18154 | -112.42836 | 33754 ft | 433 kts | 303° |
| 2026-04-29 17:18 | 30.20193 | -112.45391 | 34158 ft | 432 kts | 303° |
| 2026-04-29 17:18 | 30.22226 | -112.47937 | 34541 ft | 430 kts | 303° |
| 2026-04-29 17:18 | 30.24252 | -112.50470 | 34939 ft | 428 kts | 303° |
| 2026-04-29 17:19 | 30.26264 | -112.52988 | 35354 ft | 425 kts | 303° |
| 2026-04-29 17:19 | 30.28264 | -112.55499 | 35771 ft | 423 kts | 303° |
| 2026-04-29 17:19 | 30.30254 | -112.58000 | 35970 ft | 422 kts | 303° |
| 2026-04-29 17:19 | 30.32239 | -112.60492 | 36028 ft | 420 kts | 303° |
| 2026-04-29 17:20 | 30.36193 | -112.65464 | 36027 ft | 419 kts | 302° |
| 2026-04-29 17:20 | 30.40130 | -112.70438 | 36027 ft | 418 kts | 302° |
| 2026-04-29 17:21 | 30.44063 | -112.75404 | 36029 ft | 418 kts | 302° |
| 2026-04-29 17:21 | 30.47991 | -112.80365 | 36035 ft | 417 kts | 302° |
| 2026-04-29 17:22 | 30.51891 | -112.85289 | 36039 ft | 417 kts | 302° |
| 2026-04-29 17:22 | 30.55817 | -112.90252 | 36046 ft | 417 kts | 302° |
| 2026-04-29 17:23 | 30.59738 | -112.95228 | 36048 ft | 417 kts | 302° |
| 2026-04-29 17:23 | 30.63654 | -113.00196 | 36048 ft | 417 kts | 302° |
| 2026-04-29 17:24 | 30.67566 | -113.05168 | 36049 ft | 417 kts | 302° |
| 2026-04-29 17:24 | 30.71475 | -113.10140 | 36050 ft | 416 kts | 302° |
| 2026-04-29 17:25 | 30.75379 | -113.15119 | 36051 ft | 416 kts | 302° |
| 2026-04-29 17:25 | 30.79281 | -113.20101 | 36041 ft | 417 kts | 302° |
| 2026-04-29 17:26 | 30.83159 | -113.25059 | 36044 ft | 417 kts | 302° |
| 2026-04-29 17:26 | 30.87062 | -113.30052 | 36052 ft | 417 kts | 302° |
| 2026-04-29 17:27 | 30.90967 | -113.35042 | 36049 ft | 417 kts | 302° |
| 2026-04-29 17:27 | 30.94871 | -113.40041 | 36056 ft | 417 kts | 301° |
| 2026-04-29 17:28 | 30.98781 | -113.45062 | 36054 ft | 417 kts | 301° |
| 2026-04-29 17:28 | 31.02676 | -113.50073 | 36052 ft | 417 kts | 301° |
| 2026-04-29 17:29 | 31.06571 | -113.55085 | 36051 ft | 417 kts | 301° |
| 2026-04-29 17:29 | 31.09804 | -113.59253 | 36049 ft | 417 kts | 301° |
| 2026-04-29 17:30 | 31.14321 | -113.65085 | 36046 ft | 417 kts | 301° |
| 2026-04-29 17:30 | 31.18213 | -113.70112 | 36048 ft | 417 kts | 301° |
| 2026-04-29 17:31 | 31.22095 | -113.75145 | 36044 ft | 417 kts | 301° |
| 2026-04-29 17:31 | 31.25984 | -113.80191 | 36046 ft | 418 kts | 301° |
| 2026-04-29 17:32 | 31.29876 | -113.85234 | 36041 ft | 418 kts | 301° |
| 2026-04-29 17:32 | 31.33762 | -113.90282 | 36035 ft | 418 kts | 301° |
| 2026-04-29 17:33 | 31.37648 | -113.95346 | 36033 ft | 418 kts | 301° |
| 2026-04-29 17:33 | 31.41531 | -114.00409 | 36031 ft | 418 kts | 301° |
| 2026-04-29 17:34 | 31.45410 | -114.05475 | 36027 ft | 418 kts | 301° |
| 2026-04-29 17:34 | 31.49293 | -114.10544 | 36018 ft | 418 kts | 301° |
| 2026-04-29 17:35 | 31.55117 | -114.18164 | 36017 ft | 418 kts | 301° |
| 2026-04-29 17:36 | 31.58977 | -114.23215 | 36013 ft | 418 kts | 301° |
| 2026-04-29 17:36 | 31.62882 | -114.28337 | 36013 ft | 418 kts | 301° |
| 2026-04-29 17:37 | 31.66734 | -114.33409 | 36012 ft | 418 kts | 301° |
| 2026-04-29 17:37 | 31.70605 | -114.38512 | 36021 ft | 418 kts | 300° |
| 2026-04-29 17:38 | 31.74479 | -114.43616 | 36023 ft | 419 kts | 300° |
| 2026-04-29 17:38 | 31.77701 | -114.47862 | 36022 ft | 419 kts | 300° |
| 2026-04-29 17:39 | 31.82192 | -114.53778 | 36015 ft | 406 kts | 300° |
| 2026-04-29 17:39 | 31.85297 | -114.57879 | 36015 ft | 402 kts | 300° |
| 2026-04-29 17:40 | 31.89003 | -114.62801 | 36019 ft | 402 kts | 300° |
| 2026-04-29 17:40 | 31.92704 | -114.67729 | 36017 ft | 402 kts | 300° |
| 2026-04-29 17:41 | 31.96407 | -114.72652 | 36022 ft | 401 kts | 300° |
| 2026-04-29 17:41 | 32.00107 | -114.77578 | 36027 ft | 401 kts | 300° |
| 2026-04-29 17:42 | 32.03791 | -114.82476 | 36030 ft | 402 kts | 300° |
| 2026-04-29 17:42 | 32.07498 | -114.87410 | 36039 ft | 402 kts | 300° |
| 2026-04-29 17:43 | 32.11203 | -114.92352 | 36040 ft | 402 kts | 300° |
| 2026-04-29 17:43 | 32.14900 | -114.97296 | 36038 ft | 402 kts | 300° |
| 2026-04-29 17:44 | 32.18593 | -115.02251 | 36035 ft | 402 kts | 300° |
| 2026-04-29 17:44 | 32.22287 | -115.07210 | 36033 ft | 402 kts | 300° |
| 2026-04-29 17:45 | 32.25987 | -115.12174 | 36038 ft | 403 kts | 300° |
| 2026-04-29 17:45 | 32.29690 | -115.17145 | 36042 ft | 403 kts | 300° |
| 2026-04-29 17:46 | 32.33390 | -115.22128 | 36046 ft | 403 kts | 300° |
| 2026-04-29 17:46 | 32.37091 | -115.27114 | 36050 ft | 403 kts | 300° |
| 2026-04-29 17:47 | 32.40784 | -115.32106 | 36053 ft | 403 kts | 300° |
| 2026-04-29 17:47 | 32.44485 | -115.37098 | 36056 ft | 404 kts | 300° |
| 2026-04-29 17:48 | 32.48159 | -115.42073 | 36055 ft | 404 kts | 300° |
| 2026-04-29 17:48 | 32.51858 | -115.47089 | 36060 ft | 404 kts | 300° |
| 2026-04-29 17:49 | 32.55561 | -115.52110 | 36062 ft | 406 kts | 300° |
| 2026-04-29 17:49 | 32.59335 | -115.57262 | 36037 ft | 419 kts | 300° |
| 2026-04-29 17:50 | 32.63178 | -115.62499 | 36051 ft | 422 kts | 300° |
| 2026-04-29 17:50 | 32.66670 | -115.67969 | 36051 ft | 410 kts | 292° |
| 2026-04-29 17:51 | 32.69703 | -115.73700 | 36049 ft | 410 kts | 292° |
| 2026-04-29 17:51 | 32.72726 | -115.79441 | 36055 ft | 410 kts | 292° |
| 2026-04-29 17:52 | 32.75742 | -115.85191 | 36064 ft | 410 kts | 292° |
| 2026-04-29 17:52 | 32.78739 | -115.90908 | 36067 ft | 410 kts | 292° |
| 2026-04-29 17:53 | 32.81751 | -115.96667 | 36068 ft | 410 kts | 291° |
| 2026-04-29 17:53 | 32.84680 | -116.02479 | 36050 ft | 409 kts | 291° |
| 2026-04-29 17:54 | 32.87574 | -116.08317 | 36064 ft | 410 kts | 290° |
| 2026-04-29 17:54 | 32.90465 | -116.14114 | 35156 ft | 404 kts | 291° |
| 2026-04-29 17:54 | 32.91898 | -116.16979 | 34287 ft | 399 kts | 291° |
| 2026-04-29 17:55 | 32.93309 | -116.19796 | 33373 ft | 393 kts | 291° |
| 2026-04-29 17:55 | 32.94708 | -116.22595 | 32260 ft | 392 kts | 291° |
| 2026-04-29 17:55 | 32.96102 | -116.25393 | 30980 ft | 395 kts | 291° |
| 2026-04-29 17:55 | 32.97503 | -116.28214 | 29799 ft | 396 kts | 292° |
| 2026-04-29 17:56 | 32.98903 | -116.31036 | 28247 ft | 399 kts | 292° |
| 2026-04-29 17:56 | 33.00324 | -116.33911 | 26790 ft | 404 kts | 294° |
| 2026-04-29 17:56 | 33.01750 | -116.36791 | 25592 ft | 403 kts | 294° |
| 2026-04-29 17:56 | 33.03172 | -116.39647 | 25150 ft | 396 kts | 295° |
| 2026-04-29 17:57 | 33.04566 | -116.42372 | 24923 ft | 387 kts | 298° |
| 2026-04-29 17:57 | 33.06249 | -116.44882 | 24697 ft | 388 kts | 304° |
| 2026-04-29 17:57 | 33.08003 | -116.47320 | 24398 ft | 387 kts | 304° |
| 2026-04-29 17:57 | 33.09754 | -116.49761 | 23911 ft | 386 kts | 304° |
| 2026-04-29 17:58 | 33.11492 | -116.52186 | 23413 ft | 384 kts | 305° |
| 2026-04-29 17:58 | 33.13222 | -116.54603 | 22909 ft | 382 kts | 305° |
| 2026-04-29 17:58 | 33.14942 | -116.57007 | 22439 ft | 379 kts | 305° |
| 2026-04-29 17:58 | 33.16647 | -116.59392 | 21972 ft | 377 kts | 305° |
| 2026-04-29 17:59 | 33.18349 | -116.61755 | 21477 ft | 375 kts | 307° |
| 2026-04-29 17:59 | 33.20304 | -116.63840 | 20996 ft | 379 kts | 319° |
| 2026-04-29 17:59 | 33.22614 | -116.65417 | 20484 ft | 385 kts | 331° |
| 2026-04-29 17:59 | 33.25136 | -116.66523 | 19968 ft | 386 kts | 335° |
| 2026-04-29 18:00 | 33.27668 | -116.67587 | 19439 ft | 385 kts | 335° |
| 2026-04-29 18:00 | 33.30137 | -116.68628 | 19140 ft | 377 kts | 335° |
| 2026-04-29 18:00 | 33.32596 | -116.69667 | 18745 ft | 373 kts | 335° |
| 2026-04-29 18:00 | 33.35027 | -116.70698 | 18324 ft | 369 kts | 335° |
| 2026-04-29 18:01 | 33.37425 | -116.71719 | 17657 ft | 363 kts | 335° |
| 2026-04-29 18:01 | 33.39794 | -116.72732 | 16839 ft | 361 kts | 335° |
| 2026-04-29 18:01 | 33.42146 | -116.73742 | 16338 ft | 356 kts | 336° |
| 2026-04-29 18:01 | 33.44472 | -116.74739 | 15649 ft | 356 kts | 336° |
| 2026-04-29 18:02 | 33.46800 | -116.75739 | 15142 ft | 355 kts | 336° |
| 2026-04-29 18:02 | 33.49122 | -116.76736 | 14639 ft | 354 kts | 337° |
| 2026-04-29 18:02 | 33.51441 | -116.77731 | 14138 ft | 353 kts | 337° |
| 2026-04-29 18:02 | 33.53724 | -116.78711 | 13448 ft | 348 kts | 337° |
| 2026-04-29 18:03 | 33.55981 | -116.79689 | 13159 ft | 343 kts | 337° |
| 2026-04-29 18:03 | 33.58219 | -116.80660 | 12888 ft | 341 kts | 337° |
| 2026-04-29 18:03 | 33.60446 | -116.81628 | 12654 ft | 340 kts | 337° |
| 2026-04-29 18:03 | 33.62663 | -116.82594 | 12399 ft | 339 kts | 337° |
| 2026-04-29 18:04 | 33.64873 | -116.83558 | 12152 ft | 337 kts | 337° |
| 2026-04-29 18:04 | 33.67076 | -116.84517 | 11909 ft | 336 kts | 337° |
| 2026-04-29 18:04 | 33.69273 | -116.85474 | 11664 ft | 335 kts | 338° |
| 2026-04-29 18:04 | 33.71457 | -116.86426 | 11420 ft | 334 kts | 338° |
| 2026-04-29 18:05 | 33.73636 | -116.87372 | 11179 ft | 332 kts | 338° |
| 2026-04-29 18:05 | 33.75809 | -116.88316 | 10939 ft | 331 kts | 338° |
| 2026-04-29 18:05 | 33.77971 | -116.89257 | 10701 ft | 330 kts | 338° |
| 2026-04-29 18:05 | 33.80125 | -116.90196 | 10465 ft | 329 kts | 338° |
| 2026-04-29 18:06 | 33.82244 | -116.91122 | 10231 ft | 328 kts | 338° |
| 2026-04-29 18:06 | 33.84385 | -116.92058 | 9988 ft | 326 kts | 338° |
| 2026-04-29 18:06 | 33.86487 | -116.92976 | 9831 ft | 317 kts | 338° |
| 2026-04-29 18:06 | 33.88522 | -116.93864 | 9696 ft | 306 kts | 338° |
| 2026-04-29 18:07 | 33.90494 | -116.94727 | 9563 ft | 297 kts | 338° |
| 2026-04-29 18:07 | 33.92352 | -116.95707 | 9430 ft | 289 kts | 327° |
| 2026-04-29 18:07 | 33.93911 | -116.97199 | 9298 ft | 286 kts | 311° |
| 2026-04-29 18:07 | 33.95075 | -116.99119 | 9167 ft | 283 kts | 296° |
| 2026-04-29 18:08 | 33.95867 | -117.01282 | 9031 ft | 283 kts | 291° |
| 2026-04-29 18:08 | 33.96624 | -117.03468 | 8900 ft | 283 kts | 291° |
| 2026-04-29 18:08 | 33.97383 | -117.05655 | 8788 ft | 283 kts | 291° |
| 2026-04-29 18:08 | 33.98144 | -117.07837 | 8653 ft | 283 kts | 291° |
| 2026-04-29 18:09 | 33.98910 | -117.10036 | 8279 ft | 285 kts | 292° |
| 2026-04-29 18:09 | 33.99685 | -117.12258 | 7880 ft | 288 kts | 292° |
| 2026-04-29 18:09 | 34.00458 | -117.14471 | 7502 ft | 289 kts | 292° |
| 2026-04-29 18:09 | 34.01232 | -117.16688 | 7262 ft | 285 kts | 292° |
| 2026-04-29 18:10 | 34.01872 | -117.18943 | 6922 ft | 284 kts | 284° |
| 2026-04-29 18:10 | 34.02372 | -117.21250 | 6579 ft | 284 kts | 284° |
| 2026-04-29 18:10 | 34.02873 | -117.23556 | 6247 ft | 284 kts | 284° |
| 2026-04-29 18:10 | 34.03370 | -117.25853 | 5998 ft | 280 kts | 285° |
| 2026-04-29 18:11 | 34.03850 | -117.28071 | 5870 ft | 265 kts | 285° |
| 2026-04-29 18:11 | 34.04304 | -117.30159 | 5690 ft | 253 kts | 285° |
| 2026-04-29 18:11 | 34.04747 | -117.32197 | 5399 ft | 252 kts | 285° |
| 2026-04-29 18:11 | 34.05193 | -117.34277 | 4962 ft | 256 kts | 285° |
| 2026-04-29 18:12 | 34.05604 | -117.36344 | 4445 ft | 254 kts | 278° |
| 2026-04-29 18:12 | 34.05658 | -117.38404 | 4158 ft | 242 kts | 270° |
| 2026-04-29 18:12 | 34.05663 | -117.40394 | 3891 ft | 230 kts | 270° |
| 2026-04-29 18:12 | 34.05676 | -117.42227 | 3883 ft | 208 kts | 270° |
| 2026-04-29 18:13 | 34.05681 | -117.43929 | 3650 ft | 198 kts | 270° |
| 2026-04-29 18:13 | 34.05682 | -117.45563 | 3196 ft | 192 kts | 270° |
| 2026-04-29 18:13 | 34.05684 | -117.47124 | 2823 ft | 179 kts | 269° |
| 2026-04-29 18:13 | 34.05685 | -117.48537 | 2582 ft | 158 kts | 269° |
| 2026-04-29 18:14 | 34.05686 | -117.49809 | 2361 ft | 147 kts | 269° |
| 2026-04-29 18:14 | 34.05687 | -117.51028 | 2164 ft | 144 kts | 269° |
| 2026-04-29 18:14 | 34.05687 | -117.52233 | 1973 ft | 143 kts | 269° |
| 2026-04-29 18:14 | 34.05688 | -117.53432 | 1781 ft | 143 kts | 270° |
| 2026-04-29 18:15 | 34.05688 | -117.54631 | 1586 ft | 143 kts | 269° |
| 2026-04-29 18:15 | 34.05687 | -117.54764 | 1564 ft | 143 kts | 269° |
| 2026-04-29 18:15 | 34.05686 | -117.55953 | 1366 ft | 143 kts | 269° |
| 2026-04-29 18:15 | 34.05687 | -117.57151 | 1184 ft | 143 kts | 269° |
| 2026-04-29 18:16 | 34.05687 | -117.58345 | 989 ft | 142 kts | 269° |
| 2026-04-29 18:16 | 34.05690 | -117.59436 | 939 ft | 111 kts | 270° |
| 2026-04-29 18:16 | 34.05678 | -117.60195 | 942 ft | 47 kts | 268° |
| 2026-04-29 18:16 | 34.05690 | -117.60478 | 946 ft | 33 kts | 272° |
| 2026-04-29 18:17 | 34.05710 | -117.60733 | 942 ft | 19 kts | 310° |
| 2026-04-29 18:17 | 34.05796 | -117.60712 | 945 ft | 9 kts | 99° |
| 2026-04-29 18:17 | 34.05799 | -117.60624 | 946 ft | 12 kts | 83° |
| 2026-04-29 18:17 | 34.05804 | -117.60510 | 944 ft | 15 kts | 75° |
| 2026-04-29 18:18 | 34.05902 | -117.60477 | 945 ft | 17 kts | 359° |
| 2026-04-29 18:18 | 34.05940 | -117.60479 | 946 ft | 0 kts | 355° |